Date,TemperatureHighF,TemperatureAvgF,TemperatureLowF,DewpointHighF,DewpointAvgF,DewpointLowF,HumidityHigh,HumidityAvg,HumidityLow,PressureMaxIn,PressureMinIn,WindSpeedMaxMPH,WindSpeedAvgMPH,GustSpeedMaxMPH,PrecipitationSumIn
2013-2-1,38.7,30.6,23.6,17.9,14.0,10.4,64,51,34,30.30,30.07,11,3,23,0.00
2013-2-2,52.1,40.2,30.5,37.1,29.8,17.3,79,67,52,30.07,29.90,8,2,23,0.01
2013-2-3,54.6,46.9,40.5,35.4,32.4,27.3,79,58,39,29.96,29.86,15,5,23,0.00
2013-2-4,59.0,47.8,41.1,45.2,36.0,28.8,90,65,41,29.85,29.66,11,3,23,0.07
2013-2-5,64.5,52.2,41.1,51.2,46.1,39.8,96,81,55,29.80,29.67,7,1,23,0.00
2013-2-6,61.1,51.9,42.9,46.2,42.8,39.8,95,73,55,29.96,29.79,9,3,23,0.00
2013-2-7,69.3,58.8,50.9,56.2,49.6,39.3,94,72,59,29.79,29.62,6,2,23,0.11
2013-2-8,57.7,45.3,37.1,56.3,40.0,32.1,96,82,72,30.07,29.64,14,7,24,0.05
2013-2-9,51.7,42.7,32.8,40.9,34.2,29.6,89,73,58,30.08,29.79,10,4,23,0.00
2013-2-10,60.8,56.1,51.8,58.4,50.1,38.9,96,81,56,29.78,29.49,16,8,27,0.69
2013-2-11,58.8,51.5,45.2,52.0,35.7,31.3,80,55,38,29.95,29.70,8,2,23,0.00
2013-2-12,51.5,47.8,43.1,41.1,38.3,35.3,82,70,55,29.91,29.55,9,4,23,0.01
2013-2-13,46.2,42.0,39.6,41.8,38.8,37.1,94,88,78,29.77,29.53,9,4,23,0.02
2013-2-14,63.0,51.0,38.9,43.4,38.3,-99.9,90,65,43,29.82,29.75,9,-8,23,0.00
2013-2-15,55.0,47.5,40.2,41.6,34.1,25.7,81,61,41,29.95,29.80,11,4,18,0.00
2013-2-16,41.1,35.9,31.1,27.6,22.4,18.9,72,58,45,30.03,29.95,9,3,18,0.00
2013-2-17,56.3,44.7,34.4,34.2,27.5,20.6,61,51,38,30.02,29.81,8,5,19,0.00
2013-2-18,59.3,52.2,46.2,53.2,44.5,33.4,95,76,56,29.82,29.49,21,9,30,0.83
2013-2-19,49.8,43.1,35.6,39.3,29.2,20.4,82,59,41,30.03,29.71,14,5,24,0.00
2013-2-20,39.3,34.6,32.1,25.7,20.1,16.1,73,56,45,30.11,29.94,11,5,16,0.00
2013-2-21,46.1,38.6,33.2,43.9,32.5,24.2,95,79,53,29.94,29.50,11,5,16,0.72
2013-2-22,50.6,41.8,36.7,43.3,38.1,32.2,97,87,68,29.84,29.63,7,3,9,0.00
2013-2-23,51.8,40.1,32.3,33.8,30.9,27.6,87,71,47,29.82,29.72,8,3,11,0.00
2013-2-24,57.5,45.6,32.3,35.3,32.1,28.4,87,62,41,29.86,29.66,10,3,12,0.00
2013-2-25,59.3,52.3,43.3,54.8,41.0,29.2,96,67,49,29.66,29.05,16,9,28,0.54
2013-2-26,55.2,45.2,41.5,53.5,39.5,34.6,94,81,70,29.57,29.05,16,9,28,0.01
2013-2-27,45.9,42.7,39.8,37.5,34.2,30.5,77,72,64,29.74,29.57,10,6,28,0.00
2013-2-28,44.0,40.0,37.0,32.6,30.0,27.7,77,68,58,29.87,29.73,10,4,28,0.00